Time;durP1;ratioP1;P1;durP2;ratioP2;P2;SDS_P1;SDS_P2;PMS_P1;PMS_P2;Temp;Humidity;BMP_temperature;BMP_pressure;BME280_temperature;BME280_humidity;BME280_pressure;Samples;Min_cycle;Max_cycle;Signal;HPM_P1;HPM_P2
2022/10/05 00:00:24;;;;;;;;;;;15.90;99.90;;;;;;5057545;28;19924;-60
2022/10/05 00:02:51;;;;;;;;;;;15.90;99.90;;;;;;5057481;28;19913;-60
2022/10/05 00:05:20;;;;;;;;;;;15.80;99.90;;;;;;5057412;28;19995;-61
2022/10/05 00:07:46;;;;;;;;;;;15.80;99.90;;;;;;5057521;28;19916;-62
2022/10/05 00:10:13;;;;;;;;;;;15.90;99.90;;;;;;5057419;28;19912;-61
2022/10/05 00:12:39;;;;;;;;;;;15.90;99.90;;;;;;5057451;28;19909;-62
2022/10/05 00:15:09;;;;;;;;;;;15.90;99.90;;;;;;5057352;28;19912;-62
2022/10/05 00:17:34;;;;;;;;;;;15.90;99.90;;;;;;5057993;28;19917;-61
2022/10/05 00:20:00;;;;;;;;;;;15.80;99.90;;;;;;5057264;28;19970;-61
2022/10/05 00:22:29;;;;;;;;;;;15.70;99.90;;;;;;5057251;28;19924;-61
2022/10/05 00:24:57;;;;;;;;;;;15.80;99.90;;;;;;5039883;28;19967;-61
2022/10/05 00:27:41;;;;;;;;;;;15.80;99.90;;;;;;5057148;28;19923;-62
2022/10/05 00:30:12;;;;;;;;;;;15.80;99.90;;;;;;5057260;28;19916;-60
2022/10/05 00:32:37;;;;;;;;;;;15.70;99.90;;;;;;5023378;28;19915;-60
2022/10/05 00:35:03;;;;;;;;;;;15.70;99.90;;;;;;5057074;28;20196;-61
2022/10/05 00:37:30;;;;;;;;;;;15.60;99.90;;;;;;5023418;28;19913;-61
2022/10/05 00:39:55;;;;;;;;;;;15.70;99.90;;;;;;5057105;28;19928;-61
2022/10/05 00:42:28;;;;;;;;;;;15.70;99.90;;;;;;5039593;28;19912;-61
2022/10/05 00:45:03;;;;;;;;;;;15.80;99.90;;;;;;5057257;28;20192;-60
2022/10/05 00:47:35;;;;;;;;;;;15.80;99.90;;;;;;5056901;28;19951;-61
2022/10/05 00:50:05;;;;;;;;;;;15.70;99.90;;;;;;5039574;28;19944;-63
2022/10/05 00:52:50;;;;;;;;;;;15.70;99.90;;;;;;5056767;28;19912;-61
2022/10/05 00:55:34;;;;;;;;;;;15.80;99.90;;;;;;5057140;28;20239;-62
2022/10/05 00:58:00;;;;;;;;;;;15.80;99.90;;;;;;5057008;28;19931;-61
2022/10/05 01:00:26;;;;;;;;;;;15.80;99.90;;;;;;5058675;28;20173;-60
2022/10/05 01:03:03;;;;;;;;;;;15.70;99.90;;;;;;5060865;28;20184;-61
2022/10/05 01:05:47;;;;;;;;;;;15.70;99.90;;;;;;5060829;28;19913;-61
2022/10/05 01:08:25;;;;;;;;;;;15.70;99.90;;;;;;5043443;28;19912;-61
2022/10/05 01:11:01;;;;;;;;;;;15.70;99.90;;;;;;5043416;28;19919;-61
2022/10/05 01:13:33;;;;;;;;;;;15.70;99.90;;;;;;5060952;28;20350;-62
2022/10/05 01:16:08;;;;;;;;;;;15.80;99.90;;;;;;5043953;28;19915;-61
2022/10/05 01:18:43;;;;;;;;;;;15.70;99.90;;;;;;5060638;28;20232;-61
2022/10/05 01:21:20;;;;;;;;;;;15.70;99.90;;;;;;5060443;28;19909;-60
2022/10/05 01:23:46;;;;;;;;;;;15.70;99.90;;;;;;5060745;28;20179;-61
2022/10/05 01:26:30;;;;;;;;;;;15.70;99.90;;;;;;5060466;28;19908;-61
2022/10/05 01:29:15;;;;;;;;;;;15.60;99.90;;;;;;5042925;28;20299;-61
2022/10/05 01:32:01;;;;;;;;;;;15.60;99.90;;;;;;5043072;28;19909;-61
2022/10/05 01:34:41;;;;;;;;;;;15.70;99.90;;;;;;5029643;28;19909;-61
2022/10/05 01:37:25;;;;;;;;;;;15.70;99.90;;;;;;5060203;28;19913;-60
2022/10/05 01:39:56;;;;;;;;;;;15.60;99.90;;;;;;5042809;28;19920;-61
2022/10/05 01:42:39;;;;;;;;;;;15.70;99.90;;;;;;5060077;28;19909;-61
2022/10/05 01:45:11;;;;;;;;;;;15.70;99.90;;;;;;5059932;28;19912;-60
2022/10/05 01:47:46;;;;;;;;;;;15.60;99.90;;;;;;5042588;28;19936;-61
2022/10/05 01:50:20;;;;;;;;;;;15.60;99.90;;;;;;5060163;28;19921;-63
2022/10/05 01:52:49;;;;;;;;;;;15.60;99.90;;;;;;5060290;28;20324;-62
2022/10/05 01:55:19;;;;;;;;;;;15.60;99.90;;;;;;5026197;28;20280;-62
2022/10/05 01:58:00;;;;;;;;;;;15.60;99.90;;;;;;5042495;28;19908;-61
2022/10/05 02:00:27;;;;;;;;;;;15.70;99.90;;;;;;5059612;28;19913;-61
2022/10/05 02:03:00;;;;;;;;;;;15.70;99.90;;;;;;5060281;28;19923;-61
2022/10/05 02:05:34;;;;;;;;;;;15.70;99.90;;;;;;5059644;28;19909;-61
2022/10/05 02:08:02;;;;;;;;;;;15.60;99.90;;;;;;5042424;28;20000;-62
2022/10/05 02:10:31;;;;;;;;;;;15.60;99.90;;;;;;5059074;28;19919;-62
2022/10/05 02:13:05;;;;;;;;;;;15.60;99.90;;;;;;5058053;28;19913;-61
2022/10/05 02:15:37;;;;;;;;;;;15.60;99.90;;;;;;5058877;28;19935;-61
2022/10/05 02:18:06;;;;;;;;;;;15.60;99.90;;;;;;5059443;28;19916;-62
2022/10/05 02:20:33;;;;;;;;;;;15.60;99.90;;;;;;5059233;28;19913;-61
2022/10/05 02:23:04;;;;;;;;;;;15.70;99.90;;;;;;5059660;28;19944;-63
2022/10/05 02:25:33;;;;;;;;;;;15.70;99.90;;;;;;5042054;28;19913;-61
2022/10/05 02:28:03;;;;;;;;;;;15.70;99.90;;;;;;5041884;28;19912;-60
2022/10/05 02:30:32;;;;;;;;;;;15.60;99.90;;;;;;5041777;28;19908;-61
2022/10/05 02:33:09;;;;;;;;;;;15.60;99.90;;;;;;5041798;28;19905;-61
2022/10/05 02:35:35;;;;;;;;;;;15.70;99.90;;;;;;5058352;28;19948;-61
2022/10/05 02:38:01;;;;;;;;;;;15.60;99.90;;;;;;5059700;28;20196;-61
2022/10/05 02:40:33;;;;;;;;;;;15.70;99.90;;;;;;5041481;28;19924;-61
2022/10/05 02:42:58;;;;;;;;;;;15.60;99.90;;;;;;5058906;28;19908;-61
2022/10/05 02:45:31;;;;;;;;;;;15.60;99.90;;;;;;5041485;28;19909;-61
2022/10/05 02:48:09;;;;;;;;;;;15.50;99.90;;;;;;5041497;28;19916;-62
2022/10/05 02:50:53;;;;;;;;;;;15.40;99.90;;;;;;5058892;28;19908;-60
2022/10/05 02:53:25;;;;;;;;;;;15.30;99.90;;;;;;5058665;28;19917;-60
2022/10/05 02:56:03;;;;;;;;;;;15.40;99.90;;;;;;5058742;28;19909;-60
2022/10/05 02:58:44;;;;;;;;;;;15.40;99.90;;;;;;5058856;28;19912;-60
2022/10/05 03:01:11;;;;;;;;;;;15.30;99.90;;;;;;5041320;28;20280;-61
2022/10/05 03:03:40;;;;;;;;;;;15.30;99.90;;;;;;5041540;28;20268;-63
2022/10/05 03:06:11;;;;;;;;;;;15.30;99.90;;;;;;5041080;28;19996;-62
2022/10/05 03:08:48;;;;;;;;;;;15.20;99.90;;;;;;5041339;28;19999;-61
2022/10/05 03:11:19;;;;;;;;;;;15.20;99.90;;;;;;5058427;28;19912;-60
2022/10/05 03:14:25;;;;;;;;;;;15.20;99.90;;;;;;5058672;28;19971;-60
2022/10/05 03:17:00;;;;;;;;;;;15.20;99.90;;;;;;4998317;28;19910;-61
2022/10/05 03:19:47;;;;;;;;;;;15.20;99.90;;;;;;4997429;28;19972;-61
2022/10/05 03:22:31;;;;;;;;;;;15.20;99.90;;;;;;5005564;28;19924;-61
2022/10/05 03:24:57;;;;;;;;;;;15.20;99.90;;;;;;5058425;28;19909;-60
2022/10/05 03:27:26;;;;;;;;;;;15.20;99.90;;;;;;5058200;28;19916;-61
2022/10/05 03:30:03;;;;;;;;;;;15.20;99.90;;;;;;5040645;28;19969;-62
2022/10/05 03:32:37;;;;;;;;;;;15.30;99.90;;;;;;5041704;28;20003;-61
2022/10/05 03:35:22;;;;;;;;;;;15.30;99.90;;;;;;5058288;28;19913;-61
2022/10/05 03:37:48;;;;;;;;;;;15.40;99.90;;;;;;5057937;28;19908;-62
2022/10/05 03:40:26;;;;;;;;;;;15.40;99.90;;;;;;5057044;28;19912;-60
2022/10/05 03:43:05;;;;;;;;;;;15.40;99.90;;;;;;5057957;28;19908;-61
2022/10/05 03:45:45;;;;;;;;;;;15.40;99.90;;;;;;5040424;28;19912;-60
2022/10/05 03:48:17;;;;;;;;;;;15.30;99.90;;;;;;5058028;28;20027;-62
2022/10/05 03:50:49;;;;;;;;;;;15.30;99.90;;;;;;5057963;28;19913;-63
2022/10/05 03:53:20;;;;;;;;;;;15.40;99.90;;;;;;5040174;28;19916;-61
2022/10/05 03:56:03;;;;;;;;;;;15.40;99.90;;;;;;5057605;28;19908;-61
2022/10/05 03:58:37;;;;;;;;;;;15.40;99.90;;;;;;5040250;28;19908;-62
2022/10/05 04:01:07;;;;;;;;;;;15.40;99.90;;;;;;5056835;28;19971;-60
2022/10/05 04:03:36;;;;;;;;;;;15.40;99.90;;;;;;5040165;28;20014;-61
2022/10/05 04:06:13;;;;;;;;;;;15.40;99.90;;;;;;5057503;28;19947;-61
2022/10/05 04:08:59;;;;;;;;;;;15.40;99.90;;;;;;5057474;28;20203;-62
2022/10/05 04:11:27;;;;;;;;;;;15.30;99.90;;;;;;5039978;28;19962;-61
2022/10/05 04:13:57;;;;;;;;;;;15.30;99.90;;;;;;5039893;28;19916;-61
2022/10/05 04:16:29;;;;;;;;;;;15.40;99.90;;;;;;5039884;28;19917;-62
2022/10/05 04:19:02;;;;;;;;;;;15.40;99.90;;;;;;5040008;28;19912;-63
2022/10/05 04:21:33;;;;;;;;;;;15.50;99.90;;;;;;5039988;28;19919;-62
2022/10/05 04:24:02;;;;;;;;;;;15.50;99.90;;;;;;5057752;28;19920;-62
2022/10/05 04:26:37;;;;;;;;;;;15.50;99.90;;;;;;5039831;28;19909;-62
2022/10/05 04:29:09;;;;;;;;;;;15.50;99.90;;;;;;5039720;28;20016;-62
2022/10/05 04:31:54;;;;;;;;;;;15.40;99.90;;;;;;5039705;28;19913;-59
2022/10/05 04:34:29;;;;;;;;;;;15.40;99.90;;;;;;5039118;28;19916;-60
2022/10/05 04:36:58;;;;;;;;;;;15.40;99.90;;;;;;5057097;28;19916;-61
2022/10/05 04:39:24;;;;;;;;;;;15.30;99.90;;;;;;5039649;28;19912;-62
2022/10/05 04:42:07;;;;;;;;;;;15.40;99.90;;;;;;5039681;28;19919;-62
2022/10/05 04:44:33;;;;;;;;;;;15.30;99.90;;;;;;5056324;28;19913;-63
2022/10/05 04:47:17;;;;;;;;;;;15.30;99.90;;;;;;5039623;28;19909;-61
2022/10/05 04:50:02;;;;;;;;;;;15.30;99.90;;;;;;5056997;28;19912;-60
2022/10/05 04:52:47;;;;;;;;;;;15.30;99.90;;;;;;5040020;28;19912;-62
2022/10/05 04:55:12;;;;;;;;;;;15.20;99.90;;;;;;5057198;28;19983;-61
2022/10/05 04:57:47;;;;;;;;;;;15.20;99.90;;;;;;5039557;28;19931;-61
2022/10/05 05:00:19;;;;;;;;;;;15.30;99.90;;;;;;5056936;28;20257;-60
2022/10/05 05:02:51;;;;;;;;;;;15.30;99.90;;;;;;5039610;28;20291;-60
2022/10/05 05:05:22;;;;;;;;;;;15.30;99.90;;;;;;5056752;28;19932;-63
2022/10/05 05:07:51;;;;;;;;;;;15.30;99.90;;;;;;5039442;28;20015;-60
2022/10/05 05:10:17;;;;;;;;;;;15.30;99.90;;;;;;5039307;28;20015;-60
2022/10/05 05:12:46;;;;;;;;;;;15.30;99.90;;;;;;5039366;28;19913;-61
2022/10/05 05:15:20;;;;;;;;;;;15.20;99.90;;;;;;5056725;28;19920;-62
2022/10/05 05:17:45;;;;;;;;;;;15.20;99.90;;;;;;5055958;28;20019;-61
2022/10/05 05:20:18;;;;;;;;;;;15.20;99.90;;;;;;5039188;28;19924;-61
2022/10/05 05:22:49;;;;;;;;;;;15.20;99.90;;;;;;5038954;28;19919;-62
2022/10/05 05:25:24;;;;;;;;;;;15.20;99.90;;;;;;5056321;28;19915;-60
2022/10/05 05:27:53;;;;;;;;;;;15.20;99.90;;;;;;5039251;28;19919;-61
2022/10/05 05:30:38;;;;;;;;;;;15.20;99.90;;;;;;5055626;28;19916;-61
2022/10/05 05:33:12;;;;;;;;;;;15.30;99.90;;;;;;5056412;28;19920;-61
2022/10/05 05:35:38;;;;;;;;;;;15.30;99.90;;;;;;5056504;28;20007;-61
2022/10/05 05:38:10;;;;;;;;;;;15.20;99.90;;;;;;5038847;28;20326;-61
2022/10/05 05:40:57;;;;;;;;;;;15.20;99.90;;;;;;5038936;28;20210;-62
2022/10/05 05:43:29;;;;;;;;;;;15.20;99.90;;;;;;4993108;28;20421;-61
2022/10/05 05:46:00;;;;;;;;;;;15.20;99.90;;;;;;5056282;28;19977;-61
2022/10/05 05:48:34;;;;;;;;;;;15.30;99.90;;;;;;5042243;28;19920;-61
2022/10/05 05:51:07;;;;;;;;;;;15.30;99.90;;;;;;5059062;28;20023;-60
2022/10/05 05:53:42;;;;;;;;;;;15.30;99.90;;;;;;5042412;28;19973;-62
2022/10/05 05:56:10;;;;;;;;;;;15.30;99.90;;;;;;5026047;28;19909;-62
2022/10/05 05:58:49;;;;;;;;;;;15.30;99.90;;;;;;5042099;28;20062;-61
2022/10/05 06:01:21;;;;;;;;;;;15.30;99.90;;;;;;5058489;28;19909;-62
2022/10/05 06:03:58;;;;;;;;;;;15.30;99.90;;;;;;5042168;28;19919;-62
2022/10/05 06:06:29;;;;;;;;;;;15.30;99.90;;;;;;5042210;28;19923;-60
2022/10/05 06:09:18;;;;;;;;;;;15.30;99.90;;;;;;5059342;28;19908;-61
2022/10/05 06:11:53;;;;;;;;;;;15.30;99.90;;;;;;5042240;28;19919;-60
2022/10/05 06:14:21;;;;;;;;;;;15.40;99.90;;;;;;5041883;28;19916;-60
2022/10/05 06:16:59;;;;;;;;;;;15.50;99.90;;;;;;5041776;28;20235;-61
2022/10/05 06:19:25;;;;;;;;;;;15.50;99.90;;;;;;5059079;28;19913;-62
2022/10/05 06:21:56;;;;;;;;;;;15.70;99.90;;;;;;5059321;28;20299;-61
2022/10/05 06:24:25;;;;;;;;;;;15.70;99.90;;;;;;5041754;28;19908;-61
2022/10/05 06:27:06;;;;;;;;;;;15.70;99.90;;;;;;5041691;28;19904;-61
2022/10/05 06:29:47;;;;;;;;;;;15.70;99.90;;;;;;5058868;28;19970;-62
2022/10/05 06:32:21;;;;;;;;;;;15.80;99.90;;;;;;5041661;28;20196;-60
2022/10/05 06:35:06;;;;;;;;;;;16.00;99.90;;;;;;5041390;28;19919;-61
2022/10/05 06:37:52;;;;;;;;;;;15.90;99.90;;;;;;5041342;28;20093;-60
2022/10/05 06:40:33;;;;;;;;;;;15.80;99.90;;;;;;5058673;28;19920;-61
2022/10/05 06:43:17;;;;;;;;;;;15.90;99.90;;;;;;5041485;28;19931;-61
2022/10/05 06:46:14;;;;;;;;;;;15.90;99.90;;;;;;5042034;28;19932;-62
2022/10/05 06:49:28;;;;;;;;;;;15.80;99.90;;;;;;5041357;28;19909;-60
2022/10/05 06:52:28;;;;;;;;;;;15.80;99.90;;;;;;5041357;28;20285;-60
2022/10/05 06:54:57;;;;;;;;;;;15.90;99.90;;;;;;5041254;28;20289;-61
2022/10/05 06:57:29;;;;;;;;;;;16.10;99.90;;;;;;5040611;28;19980;-61
2022/10/05 07:00:16;;;;;;;;;;;15.90;99.90;;;;;;5041101;28;19920;-62
2022/10/05 07:02:46;;;;;;;;;;;15.90;99.90;;;;;;5041125;28;19928;-60
2022/10/05 07:05:19;;;;;;;;;;;15.80;99.90;;;;;;5041180;28;19908;-61
2022/10/05 07:07:56;;;;;;;;;;;15.90;99.90;;;;;;5041382;28;19909;-60
2022/10/05 07:10:22;;;;;;;;;;;15.90;99.90;;;;;;5040841;28;19920;-61
2022/10/05 07:12:56;;;;;;;;;;;16.00;99.90;;;;;;5040934;28;19919;-61
2022/10/05 07:15:38;;;;;;;;;;;16.00;99.90;;;;;;5040804;28;19909;-61
2022/10/05 07:18:21;;;;;;;;;;;15.90;99.90;;;;;;5040840;28;20029;-61
2022/10/05 07:21:01;;;;;;;;;;;16.00;99.90;;;;;;5040858;28;20193;-61
2022/10/05 07:23:33;;;;;;;;;;;16.00;99.90;;;;;;5058654;28;20355;-60
2022/10/05 07:26:17;;;;;;;;;;;16.00;99.90;;;;;;5024184;28;19919;-61
2022/10/05 07:28:49;;;;;;;;;;;16.00;99.90;;;;;;5040489;28;20307;-61
2022/10/05 07:31:19;;;;;;;;;;;16.10;99.90;;;;;;5040681;28;19938;-61
2022/10/05 07:34:03;;;;;;;;;;;16.20;99.90;;;;;;5057757;28;19920;-61
2022/10/05 07:39:17;;;;;;;;;;;16.30;99.90;;;;;;5040302;28;19934;-62
2022/10/05 07:41:47;;;;;;;;;;;16.40;99.90;;;;;;5040420;28;19912;-61
2022/10/05 07:44:33;;;;;;;;;;;16.20;99.90;;;;;;5040586;28;19981;-61
2022/10/05 07:47:18;;;;;;;;;;;16.20;99.90;;;;;;5040489;28;19909;-61
2022/10/05 07:49:57;;;;;;;;;;;16.30;99.90;;;;;;5057765;28;19912;-61
2022/10/05 07:52:26;;;;;;;;;;;16.40;99.90;;;;;;5040217;28;19913;-61
2022/10/05 07:54:58;;;;;;;;;;;16.40;99.90;;;;;;5040190;28;20011;-61
2022/10/05 07:57:43;;;;;;;;;;;16.40;99.90;;;;;;5040175;28;19919;-61
2022/10/05 08:00:12;;;;;;;;;;;16.60;99.90;;;;;;5040107;28;19995;-61
2022/10/05 08:02:48;;;;;;;;;;;16.60;99.90;;;;;;5040638;28;20007;-61
2022/10/05 08:05:20;;;;;;;;;;;16.60;99.90;;;;;;5057680;28;19912;-61
2022/10/05 08:07:46;;;;;;;;;;;16.50;99.90;;;;;;5057398;28;19909;-61
2022/10/05 08:10:38;;;;;;;;;;;16.60;99.90;;;;;;5056636;28;20339;-61
2022/10/05 08:13:23;;;;;;;;;;;16.70;99.90;;;;;;5057950;28;19970;-62
2022/10/05 08:15:54;;;;;;;;;;;16.70;99.90;;;;;;5057335;28;19928;-61
2022/10/05 08:18:20;;;;;;;;;;;16.70;99.90;;;;;;5057408;28;19908;-62
2022/10/05 08:20:53;;;;;;;;;;;16.70;99.90;;;;;;5057167;28;20312;-61
2022/10/05 08:23:27;;;;;;;;;;;16.70;99.90;;;;;;5057321;28;19915;-64
2022/10/05 08:26:02;;;;;;;;;;;16.60;99.90;;;;;;5057278;28;20176;-62
2022/10/05 08:28:30;;;;;;;;;;;16.70;99.90;;;;;;5057219;28;19916;-61
2022/10/05 08:31:02;;;;;;;;;;;16.80;99.90;;;;;;5057241;28;20188;-61
2022/10/05 08:33:31;;;;;;;;;;;16.70;99.90;;;;;;5057186;28;19909;-61
2022/10/05 08:36:09;;;;;;;;;;;16.70;99.90;;;;;;5057183;28;19937;-60
2022/10/05 08:38:35;;;;;;;;;;;16.80;99.90;;;;;;5057049;28;19912;-62
2022/10/05 08:41:01;;;;;;;;;;;16.90;99.90;;;;;;5057296;28;19924;-61
2022/10/05 08:43:38;;;;;;;;;;;17.00;99.90;;;;;;5039701;28;19999;-61
2022/10/05 08:46:21;;;;;;;;;;;17.10;99.90;;;;;;5056980;28;20003;-61
2022/10/05 08:48:50;;;;;;;;;;;17.20;99.90;;;;;;5057635;28;20181;-61
2022/10/05 08:51:34;;;;;;;;;;;17.30;99.90;;;;;;5057386;28;19908;-63
2022/10/05 08:54:18;;;;;;;;;;;17.40;99.90;;;;;;5039533;28;20312;-63
2022/10/05 08:57:12;;;;;;;;;;;17.40;99.90;;;;;;5057390;28;20184;-62
2022/10/05 08:59:56;;;;;;;;;;;17.20;99.90;;;;;;5057222;28;19940;-62
2022/10/05 09:02:22;;;;;;;;;;;17.20;99.90;;;;;;5056897;28;19982;-62
2022/10/05 09:04:47;;;;;;;;;;;17.10;99.90;;;;;;5056857;28;19912;-62
2022/10/05 09:07:18;;;;;;;;;;;17.30;99.90;;;;;;5056839;28;19912;-64
2022/10/05 09:09:53;;;;;;;;;;;17.30;99.90;;;;;;5039540;28;19931;-62
2022/10/05 09:12:34;;;;;;;;;;;17.40;99.90;;;;;;5056982;28;19990;-62
2022/10/05 09:15:18;;;;;;;;;;;17.50;99.90;;;;;;5056885;28;19916;-63
2022/10/05 09:18:03;;;;;;;;;;;17.50;99.90;;;;;;5056713;28;20184;-60
2022/10/05 09:20:29;;;;;;;;;;;17.50;99.90;;;;;;5057035;28;19912;-63
2022/10/05 09:22:58;;;;;;;;;;;17.40;99.90;;;;;;5060645;28;19912;-62
2022/10/05 09:25:39;;;;;;;;;;;17.30;99.90;;;;;;5060586;28;19912;-62
2022/10/05 09:28:07;;;;;;;;;;;17.30;99.90;;;;;;5060496;28;19913;-61
2022/10/05 09:30:40;;;;;;;;;;;17.30;99.90;;;;;;5060294;28;19913;-62
2022/10/05 09:33:06;;;;;;;;;;;17.40;99.90;;;;;;5060190;28;19909;-62
2022/10/05 09:35:32;;;;;;;;;;;17.60;99.90;;;;;;5026208;28;19909;-62
2022/10/05 09:38:06;;;;;;;;;;;17.60;99.90;;;;;;5042936;28;19920;-63
2022/10/05 09:40:43;;;;;;;;;;;17.60;99.90;;;;;;5060176;28;20007;-62
2022/10/05 09:43:21;;;;;;;;;;;17.70;99.90;;;;;;5060098;28;19948;-62
2022/10/05 09:45:56;;;;;;;;;;;17.90;99.90;;;;;;5060140;28;19909;-63
2022/10/05 09:48:41;;;;;;;;;;;17.90;99.90;;;;;;5060358;28;20003;-63
2022/10/05 09:51:12;;;;;;;;;;;18.10;99.90;;;;;;5059728;28;19909;-63
2022/10/05 09:53:58;;;;;;;;;;;18.30;99.90;;;;;;5059597;28;19924;-63
2022/10/05 09:56:30;;;;;;;;;;;18.40;99.90;;;;;;5038969;28;19921;-62
2022/10/05 09:59:06;;;;;;;;;;;18.30;99.90;;;;;;5059798;28;19976;-61
2022/10/05 10:01:44;;;;;;;;;;;18.40;99.90;;;;;;5059887;28;19909;-63
2022/10/05 10:04:23;;;;;;;;;;;18.30;99.90;;;;;;5060466;28;19909;-65
2022/10/05 10:06:55;;;;;;;;;;;18.20;99.90;;;;;;5060211;28;19909;-64
2022/10/05 10:09:21;;;;;;;;;;;18.40;99.90;;;;;;5060159;28;19919;-60
2022/10/05 10:12:07;;;;;;;;;;;18.50;99.90;;;;;;5059675;28;19920;-60
2022/10/05 10:14:42;;;;;;;;;;;18.60;99.90;;;;;;5042356;28;19909;-62
2022/10/05 10:17:31;;;;;;;;;;;18.70;99.90;;;;;;5059607;28;20012;-63
2022/10/05 10:20:13;;;;;;;;;;;18.70;99.90;;;;;;5040615;28;19912;-65
2022/10/05 10:22:57;;;;;;;;;;;18.70;99.90;;;;;;5059545;28;20063;-61
2022/10/05 10:25:33;;;;;;;;;;;18.80;99.90;;;;;;5059375;28;19966;-63
2022/10/05 10:28:14;;;;;;;;;;;18.80;99.90;;;;;;5059357;28;19974;-59
2022/10/05 10:30:59;;;;;;;;;;;18.70;99.90;;;;;;5059317;28;19992;-65
2022/10/05 10:33:27;;;;;;;;;;;18.60;99.90;;;;;;5058382;28;19920;-64
2022/10/05 10:35:59;;;;;;;;;;;18.50;99.90;;;;;;5041768;28;19909;-63
2022/10/05 10:38:50;;;;;;;;;;;18.50;99.90;;;;;;5059080;28;19965;-62
2022/10/05 10:41:31;;;;;;;;;;;18.70;99.90;;;;;;5041690;28;19912;-64
2022/10/05 10:44:01;;;;;;;;;;;18.70;99.90;;;;;;5059706;28;19909;-61
2022/10/05 10:46:38;;;;;;;;;;;18.80;99.90;;;;;;5058876;28;19912;-64
2022/10/05 10:49:22;;;;;;;;;;;18.90;99.90;;;;;;5058927;28;19913;-63
2022/10/05 10:52:08;;;;;;;;;;;18.80;99.90;;;;;;5058766;28;20293;-60
2022/10/05 10:54:43;;;;;;;;;;;18.90;99.90;;;;;;5018700;28;20023;-62
2022/10/05 10:57:14;;;;;;;;;;;18.80;99.90;;;;;;5018844;28;19910;-61
2022/10/05 10:59:58;;;;;;;;;;;18.80;99.90;;;;;;5019130;28;19921;-62
2022/10/05 11:02:39;;;;;;;;;;;18.80;99.90;;;;;;5018841;28;20023;-62
2022/10/05 11:05:23;;;;;;;;;;;18.90;99.90;;;;;;5018756;28;19936;-65
2022/10/05 11:07:49;;;;;;;;;;;18.90;99.90;;;;;;5017912;28;19945;-64
2022/10/05 11:10:30;;;;;;;;;;;19.00;99.90;;;;;;5018640;28;19945;-63
2022/10/05 11:13:04;;;;;;;;;;;19.20;99.90;;;;;;5018830;28;20240;-64
2022/10/05 11:15:42;;;;;;;;;;;19.40;99.90;;;;;;5017461;28;19910;-63
2022/10/05 11:18:27;;;;;;;;;;;19.90;99.90;;;;;;5018532;28;19917;-61
2022/10/05 11:21:08;;;;;;;;;;;19.50;99.90;;;;;;5018360;28;19963;-62
2022/10/05 11:23:52;;;;;;;;;;;19.90;99.90;;;;;;5018468;28;19978;-64
2022/10/05 11:26:44;;;;;;;;;;;20.50;99.90;;;;;;5018741;28;20267;-62
2022/10/05 11:29:19;;;;;;;;;;;21.00;99.90;;;;;;5017908;28;19917;-64
2022/10/05 11:32:11;;;;;;;;;;;21.50;99.90;;;;;;5017680;28;19909;-63
2022/10/05 11:34:55;;;;;;;;;;;21.30;99.90;;;;;;5017862;28;20000;-59
2022/10/05 11:37:31;;;;;;;;;;;20.40;99.90;;;;;;5018261;28;19909;-58
2022/10/05 11:40:06;;;;;;;;;;;20.10;99.90;;;;;;5018654;28;20189;-64
2022/10/05 11:43:07;;;;;;;;;;;19.90;99.90;;;;;;5018080;28;19968;-64
2022/10/05 11:45:41;;;;;;;;;;;20.00;99.90;;;;;;5016417;28;19921;-63
2022/10/05 11:48:27;;;;;;;;;;;20.10;99.90;;;;;;5014435;28;19909;-62
2022/10/05 11:51:12;;;;;;;;;;;20.20;99.90;;;;;;5017406;28;19910;-63
2022/10/05 11:53:39;;;;;;;;;;;20.60;99.90;;;;;;5043279;28;19923;-62
2022/10/05 11:56:23;;;;;;;;;;;21.00;99.90;;;;;;5057591;28;20177;-62
2022/10/05 11:59:15;;;;;;;;;;;21.10;99.90;;;;;;5057395;28;19950;-64
2022/10/05 12:01:48;;;;;;;;;;;21.00;99.90;;;;;;5055231;28;19908;-63
2022/10/05 12:04:21;;;;;;;;;;;21.20;99.90;;;;;;5057545;28;19920;-62
2022/10/05 12:06:47;;;;;;;;;;;21.80;99.90;;;;;;5057143;28;19908;-64
2022/10/05 12:09:18;;;;;;;;;;;21.50;99.90;;;;;;5057318;28;19919;-61
2022/10/05 12:11:53;;;;;;;;;;;21.40;99.90;;;;;;5057255;28;20266;-64
2022/10/05 12:14:19;;;;;;;;;;;20.90;99.90;;;;;;5057128;28;19920;-64
2022/10/05 12:16:48;;;;;;;;;;;20.70;99.90;;;;;;5057185;28;20019;-65
2022/10/05 12:19:26;;;;;;;;;;;20.70;99.90;;;;;;5057096;28;20019;-64
2022/10/05 12:22:14;;;;;;;;;;;21.10;99.90;;;;;;5057140;28;19908;-61
2022/10/05 12:24:42;;;;;;;;;;;21.20;99.90;;;;;;5039736;28;19961;-64
2022/10/05 12:27:14;;;;;;;;;;;21.10;99.90;;;;;;5056456;28;19905;-63
2022/10/05 12:29:47;;;;;;;;;;;21.00;99.90;;;;;;5057315;28;20280;-62
2022/10/05 12:32:23;;;;;;;;;;;20.80;99.90;;;;;;5057073;28;19908;-62
2022/10/05 12:34:57;;;;;;;;;;;20.70;99.90;;;;;;5057335;28;19909;-64
2022/10/05 12:37:29;;;;;;;;;;;20.40;99.90;;;;;;5057379;28;19909;-64
2022/10/05 12:39:54;;;;;;;;;;;20.50;99.90;;;;;;5057195;28;19977;-66
2022/10/05 12:42:30;;;;;;;;;;;20.90;99.90;;;;;;5057076;28;19999;-65
2022/10/05 12:44:55;;;;;;;;;;;20.80;99.90;;;;;;5039739;28;19916;-61
2022/10/05 12:47:22;;;;;;;;;;;20.50;99.90;;;;;;5056921;28;20288;-62
2022/10/05 12:49:48;;;;;;;;;;;20.80;99.90;;;;;;5057184;28;20340;-62
2022/10/05 12:52:28;;;;;;;;;;;20.70;99.90;;;;;;5056760;28;19968;-62
2022/10/05 12:55:02;;;;;;;;;;;20.90;99.90;;;;;;5056994;28;19913;-61
2022/10/05 12:57:48;;;;;;;;;;;20.80;99.90;;;;;;5043278;28;19923;-61
2022/10/05 13:00:15;;;;;;;;;;;20.50;99.90;;;;;;5053489;28;20320;-61
2022/10/05 13:02:49;;;;;;;;;;;20.50;99.90;;;;;;5060984;28;19917;-60
2022/10/05 13:05:15;;;;;;;;;;;20.50;99.90;;;;;;5060794;28;19991;-61
2022/10/05 13:08:13;;;;;;;;;;;20.30;99.90;;;;;;5076170;22;20259;-60
2022/10/05 13:10:45;;;;;;;;;;;20.10;99.90;;;;;;5058167;28;19915;-60
2022/10/05 13:13:32;;;;;;;;;;;19.90;99.90;;;;;;5080845;28;20238;-62
2022/10/05 13:16:07;;;;;;;;;;;19.70;99.90;;;;;;5079863;28;19909;-62
2022/10/05 13:18:53;;;;;;;;;;;19.60;99.90;;;;;;5080604;28;19912;-63
2022/10/05 13:21:23;;;;;;;;;;;19.50;99.90;;;;;;5080650;28;19998;-60
2022/10/05 13:24:04;;;;;;;;;;;19.50;99.90;;;;;;5080605;28;20236;-62
2022/10/05 13:26:35;;;;;;;;;;;19.60;99.90;;;;;;5080544;28;19920;-61
2022/10/05 13:29:15;;;;;;;;;;;19.30;99.90;;;;;;5080318;28;19912;-60
2022/10/05 13:31:46;;;;;;;;;;;19.30;99.90;;;;;;5080434;28;19908;-63
2022/10/05 13:34:18;;;;;;;;;;;19.20;99.90;;;;;;5080316;28;19916;-63
2022/10/05 13:36:50;;;;;;;;;;;19.30;99.90;;;;;;5080322;28;19927;-64
2022/10/05 13:39:30;;;;;;;;;;;19.20;99.90;;;;;;5080062;28;19920;-63
2022/10/05 13:42:14;;;;;;;;;;;19.60;99.90;;;;;;5080830;28;19909;-61
2022/10/05 13:44:40;;;;;;;;;;;19.50;99.90;;;;;;5080136;28;19908;-62
2022/10/05 13:47:11;;;;;;;;;;;19.30;99.90;;;;;;5080147;28;19908;-62
2022/10/05 13:49:49;;;;;;;;;;;19.00;99.90;;;;;;5080154;28;19919;-61
2022/10/05 13:52:19;;;;;;;;;;;18.90;99.90;;;;;;5079919;28;19908;-60
2022/10/05 13:54:51;;;;;;;;;;;18.70;99.90;;;;;;5079985;28;20191;-64
2022/10/05 13:57:43;;;;;;;;;;;18.60;99.90;;;;;;5080337;28;19908;-62
2022/10/05 14:00:17;;;;;;;;;;;18.50;99.90;;;;;;5080016;28;19939;-63
2022/10/05 14:02:46;;;;;;;;;;;18.30;99.90;;;;;;5079934;28;19909;-65
2022/10/05 14:05:30;;;;;;;;;;;18.30;99.90;;;;;;5079790;28;19908;-63
2022/10/05 14:08:21;;;;;;;;;;;18.30;99.90;;;;;;5077574;28;19935;-63
2022/10/05 14:10:47;;;;;;;;;;;18.30;99.90;;;;;;5075102;28;20177;-63
2022/10/05 14:13:21;;;;;;;;;;;18.20;99.90;;;;;;5079945;28;19912;-62
2022/10/05 14:15:55;;;;;;;;;;;18.10;99.90;;;;;;5079630;28;19961;-65
2022/10/05 14:18:26;;;;;;;;;;;18.30;99.90;;;;;;5079433;28;19912;-63
2022/10/05 14:20:57;;;;;;;;;;;18.60;99.90;;;;;;5078543;28;19912;-65
2022/10/05 14:23:25;;;;;;;;;;;18.40;99.90;;;;;;5079380;28;19959;-62
2022/10/05 14:25:54;;;;;;;;;;;18.50;99.90;;;;;;5079294;28;19908;-64
2022/10/05 14:28:28;;;;;;;;;;;18.50;99.90;;;;;;5079439;28;19974;-63
2022/10/05 14:30:59;;;;;;;;;;;18.60;99.90;;;;;;5079271;28;19909;-60
2022/10/05 14:33:30;;;;;;;;;;;18.50;99.90;;;;;;5079265;28;19909;-64
2022/10/05 14:35:56;;;;;;;;;;;18.30;99.90;;;;;;5079594;28;20280;-63
2022/10/05 14:38:48;;;;;;;;;;;18.30;99.90;;;;;;5079228;28;20056;-64
2022/10/05 14:41:15;;;;;;;;;;;18.70;99.90;;;;;;5076865;28;20260;-65
2022/10/05 14:43:51;;;;;;;;;;;19.40;99.90;;;;;;5079120;28;19962;-63
2022/10/05 14:46:17;;;;;;;;;;;19.90;99.90;;;;;;5078883;28;20227;-61
2022/10/05 14:48:44;;;;;;;;;;;19.40;99.90;;;;;;5078868;28;19910;-59
2022/10/05 14:51:11;;;;;;;;;;;18.80;99.90;;;;;;5078147;28;19916;-66
2022/10/05 14:53:38;;;;;;;;;;;18.60;99.90;;;;;;5078227;28;19915;-62
2022/10/05 14:56:23;;;;;;;;;;;18.30;99.90;;;;;;5079327;28;19908;-60
2022/10/05 14:58:49;;;;;;;;;;;18.20;99.90;;;;;;5077999;28;19908;-63
2022/10/05 15:01:31;;;;;;;;;;;18.20;99.90;;;;;;5078721;28;19976;-62
2022/10/05 15:03:56;;;;;;;;;;;18.10;99.90;;;;;;5078581;28;19908;-63